首页
METAR-TAF:

METAR-TAF

机场 :

普瓦捷, 法国

纬度: 46-35N, 经度: 000-19E, 海拔: 129米

当前天气观测

该预报发布于26分钟前的18:00 UTC
风速12节,风向北转西北
温度 16°C
湿度 68%
气压 1004 hPa
能见度10公里或以上
少量云层高于2900英尺
多云层高于6600英尺

METAR: LFBI 041800Z AUTO 33012KT 9999 FEW029 BKN066 16/10 Q1004 NOSIG

时间: 20:26 (18:26 UTC)

预报

该预报发布于1小时和26分钟前的17:00 UTC
预报有效从04日的 18点(UTC)到 05日的 18点(UTC)
风速12节,风向北转西北
能见度10公里或以上
散云层高于3000英尺
成为
从 04日的 22点(UTC)到 04日的 24点(UTC)
风速5节,风向西
成为
从 05日的 03点(UTC)到 05日的 05点(UTC)
风速15节,风向西,有时为25节阵风
能見度: 4000
多云层高于1200英尺
小雨
成为
从 05日的 10点(UTC)到 05日的 12点(UTC)
能见度10公里或以上
多云层高于4000英尺
短暂存在
从 05日的 13点(UTC)到 05日的 18点(UTC)
风速18节,风向西转西南,有时为30节阵风

TAF: LFBI 041700Z 0418/0518 34012KT 9999 SCT030 BECMG 0422/0424 26005KT BECMG 0503/0505 26015G25KT 4000 -RA BKN012 BECMG 0510/0512 9999 NSW BKN040 TEMPO 0513/0518 25018G30KT

超过4000个机场的气象观测和天气预报(METAR&TAF报告)。

可查询的气象台以黄色和红色小点在地图上表示。

将鼠标移到小点上方,可查看气象台名称。

然后点击查看天气观测和预报。

如需切换地图:点击带黑十字的绿色按钮放大地图;点击带横线的绿色按钮缩小地图;或者点击绿色箭头查看邻近地区的地图。


METAR-TAF: